Time;durP1;ratioP1;P1;durP2;ratioP2;P2;SDS_P1;SDS_P2;PMS_P1;PMS_P2;Temp;Humidity;BMP_temperature;BMP_pressure;BME280_temperature;BME280_humidity;BME280_pressure;Samples;Min_cycle;Max_cycle;Signal;HPM_P1;HPM_P2
2022/05/11 00:00:35;;;;;;;7.57;5.60;;;;;;;14.06;52.65;99799.94;5014436;28;20026;-75
2022/05/11 00:03:00;;;;;;;10.65;6.05;;;;;;;14.07;51.80;99795.16;5014242;28;20026;-74
2022/05/11 00:05:26;;;;;;;12.32;6.43;;;;;;;14.11;52.01;99791.28;5013063;28;20060;-75
2022/05/11 00:07:51;;;;;;;7.78;5.53;;;;;;;14.17;52.05;99786.22;5010505;28;20034;-75
2022/05/11 00:10:17;;;;;;;12.75;6.68;;;;;;;14.01;52.27;99780.50;4994568;28;20026;-75
2022/05/11 00:12:45;;;;;;;10.65;5.95;;;;;;;14.03;52.54;99770.53;4995470;28;20022;-75
2022/05/11 00:15:13;;;;;;;8.25;6.13;;;;;;;13.65;54.00;99779.28;5011905;28;20021;-75
2022/05/11 00:17:39;;;;;;;6.22;5.20;;;;;;;13.18;55.30;99778.44;5013038;28;20041;-74
2022/05/11 00:20:06;;;;;;;7.40;6.00;;;;;;;12.83;56.91;99779.53;5006722;28;20042;-74
2022/05/11 00:22:33;;;;;;;17.48;6.90;;;;;;;13.17;55.30;99782.41;4995882;28;20022;-74
2022/05/11 00:24:59;;;;;;;8.50;5.47;;;;;;;13.29;54.77;99787.22;5012929;28;20041;-74
2022/05/11 00:27:25;;;;;;;10.88;5.22;;;;;;;13.38;54.60;99787.13;4996211;28;20026;-74
2022/05/11 00:29:50;;;;;;;8.50;5.55;;;;;;;13.48;53.57;99781.13;4995042;28;20034;-74
2022/05/11 00:32:16;;;;;;;10.95;6.18;;;;;;;13.54;53.54;99792.94;5013449;28;20481;-74
2022/05/11 00:34:41;;;;;;;9.15;6.10;;;;;;;13.33;54.23;99780.59;5011870;28;20022;-73
2022/05/11 00:37:07;;;;;;;9.15;5.90;;;;;;;13.36;54.47;99784.69;5003261;28;20397;-74
2022/05/11 00:39:35;;;;;;;11.93;5.97;;;;;;;13.42;54.45;99782.50;5013447;28;20056;-74
2022/05/11 00:42:05;;;;;;;9.02;5.80;;;;;;;13.58;54.02;99783.47;5013343;28;20385;-74
2022/05/11 00:44:31;;;;;;;8.07;6.20;;;;;;;13.56;53.60;99783.00;5013418;28;20064;-74
2022/05/11 00:47:00;;;;;;;9.18;6.60;;;;;;;13.11;55.24;99789.38;4991775;28;20473;-74
2022/05/11 00:49:40;;;;;;;10.18;6.53;;;;;;;12.62;55.71;99790.78;4992289;28;20029;-74
2022/05/11 00:52:19;;;;;;;10.27;6.93;;;;;;;11.77;58.31;99793.34;4987085;28;20030;-76
2022/05/11 00:55:02;;;;;;;17.60;10.52;;;;;;;10.81;62.80;99801.56;4996825;28;20069;-75
2022/05/11 00:57:48;;;;;;;25.27;15.25;;;;;;;10.42;64.56;99794.94;4974669;28;20049;-74
2022/05/11 01:00:15;;;;;;;19.40;11.90;;;;;;;10.12;65.78;99789.06;5003497;28;20401;-76
2022/05/11 01:02:43;;;;;;;25.27;13.60;;;;;;;10.30;65.22;99786.34;5000406;28;20533;-75
2022/05/11 01:05:09;;;;;;;13.13;9.02;;;;;;;10.38;64.49;99788.34;4975790;28;20026;-75
2022/05/11 01:07:36;;;;;;;11.98;7.13;;;;;;;9.48;67.32;99787.50;5005726;28;20036;-75
2022/05/11 01:10:03;;;;;;;17.70;9.73;;;;;;;9.21;68.99;99808.84;5013001;28;20443;-75
2022/05/11 01:12:41;;;;;;;12.38;9.50;;;;;;;9.15;69.91;99788.59;5012047;28;20518;-75
2022/05/11 01:15:10;;;;;;;16.83;8.20;;;;;;;9.17;69.72;99791.91;4993018;28;20113;-76
2022/05/11 01:17:38;;;;;;;8.40;7.00;;;;;;;9.25;70.17;99793.09;5005719;28;20053;-76
2022/05/11 01:20:09;;;;;;;8.45;6.68;;;;;;;9.47;68.75;99797.00;5012727;28;20032;-76
2022/05/11 01:22:58;;;;;;;8.40;6.63;;;;;;;9.46;69.55;99803.75;5012868;28;20037;-75
2022/05/11 01:25:24;;;;;;;10.27;7.15;;;;;;;9.31;70.27;99791.00;5012635;28;20034;-75
2022/05/11 01:27:50;;;;;;;9.00;6.75;;;;;;;9.35;70.47;99783.63;5006749;28;20053;-76
2022/05/11 01:30:23;;;;;;;11.50;7.22;;;;;;;9.29;71.35;99782.97;5006837;28;20058;-76
2022/05/11 01:32:53;;;;;;;14.32;6.85;;;;;;;9.47;71.02;99771.88;4992557;28;20038;-75
2022/05/11 01:35:27;;;;;;;9.10;6.68;;;;;;;9.52;70.33;99775.34;4992710;28;20026;-76
2022/05/11 01:38:08;;;;;;;8.85;6.35;;;;;;;9.42;71.20;99770.03;4992634;28;20072;-74
2022/05/11 01:40:34;;;;;;;9.43;7.57;;;;;;;9.53;71.03;99773.38;5012446;28;20046;-75
2022/05/11 01:43:00;;;;;;;8.38;7.07;;;;;;;9.76;70.43;99778.91;5012383;28;20083;-76
2022/05/11 01:45:25;;;;;;;7.50;6.63;;;;;;;9.87;69.27;99774.69;5007610;28;20406;-76
2022/05/11 01:47:54;;;;;;;13.50;6.47;;;;;;;10.18;68.89;99776.59;5006376;28;20030;-75
2022/05/11 01:50:21;;;;;;;15.25;7.10;;;;;;;10.17;68.91;99780.56;4994880;28;20029;-75
2022/05/11 01:52:46;;;;;;;10.40;7.68;;;;;;;10.21;68.57;99778.75;5012211;28;20045;-75
2022/05/11 01:55:12;;;;;;;8.82;6.75;;;;;;;10.40;67.34;99778.44;4978510;28;20030;-74
2022/05/11 01:57:37;;;;;;;20.95;7.90;;;;;;;10.23;67.82;99787.63;4995480;28;20076;-75
2022/05/11 02:00:05;;;;;;;9.93;6.85;;;;;;;10.17;67.76;99777.75;4975087;28;20045;-76
2022/05/11 02:02:31;;;;;;;11.77;7.03;;;;;;;10.46;66.46;99779.16;4992367;28;20044;-76
2022/05/11 02:07:49;;;;;;;10.25;6.88;;;;;;;11.42;63.15;99783.06;5004891;28;20107;-76
2022/05/11 02:10:16;;;;;;;12.20;6.70;;;;;;;11.11;63.32;99786.09;5010353;28;20436;-75
2022/05/11 02:12:42;;;;;;;10.52;7.05;;;;;;;11.09;63.01;99787.22;4994214;28;20037;-76
2022/05/11 02:15:08;;;;;;;15.35;7.38;;;;;;;11.07;62.52;99783.94;5009507;28;20049;-75
2022/05/11 02:17:34;;;;;;;11.18;7.22;;;;;;;11.14;63.17;99782.63;4991864;28;20030;-75
2022/05/11 02:20:00;;;;;;;11.75;6.28;;;;;;;11.17;62.22;99785.59;4992304;28;20641;-75
2022/05/11 02:22:25;;;;;;;14.65;7.47;;;;;;;10.55;64.05;99783.94;4992210;28;20026;-75
2022/05/11 02:24:51;;;;;;;11.55;7.22;;;;;;;10.14;65.59;99786.78;4974251;28;20045;-75
2022/05/11 02:27:17;;;;;;;15.93;8.57;;;;;;;10.08;67.01;99785.28;4991481;28;20045;-75
2022/05/11 02:29:42;;;;;;;20.00;8.10;;;;;;;10.02;66.39;99783.81;4991758;28;21885;-76
2022/05/11 02:32:08;;;;;;;23.02;8.70;;;;;;;10.00;66.66;99783.28;4992216;28;20165;-75
2022/05/11 02:37:17;;;;;;;13.90;8.13;;;;;;;9.47;68.69;99783.06;4992159;28;20625;-75
2022/05/11 02:39:43;;;;;;;10.00;7.72;;;;;;;9.24;70.00;99780.28;4991852;28;20083;-75
2022/05/11 02:42:08;;;;;;;11.05;8.05;;;;;;;9.23;70.96;99787.00;4991803;28;20057;-75
2022/05/11 02:44:34;;;;;;;14.68;8.27;;;;;;;9.60;69.91;99793.31;4989553;28;20494;-75
2022/05/11 02:46:59;;;;;;;20.95;8.57;;;;;;;9.40;69.51;99777.91;4998980;28;20487;-75
2022/05/11 02:49:25;;;;;;;12.70;9.18;;;;;;;9.19;70.93;99781.22;5015293;28;20030;-75
2022/05/11 02:51:51;;;;;;;16.08;8.43;;;;;;;8.97;71.26;99787.66;5013877;28;20416;-74
2022/05/11 02:54:16;;;;;;;13.80;8.95;;;;;;;9.08;71.80;99799.38;5014351;28;20021;-74
2022/05/11 02:56:42;;;;;;;11.75;8.50;;;;;;;8.67;72.43;99796.44;5010714;28;20030;-75
2022/05/11 02:59:08;;;;;;;13.32;8.10;;;;;;;8.73;71.86;99793.50;4999158;28;20515;-75
2022/05/11 03:01:34;;;;;;;12.82;7.53;;;;;;;8.61;72.57;99796.88;5015478;28;20109;-74
2022/05/11 03:03:59;;;;;;;13.38;8.23;;;;;;;8.64;72.67;99801.81;5014425;28;20037;-75
2022/05/11 03:06:25;;;;;;;9.80;7.05;;;;;;;8.71;72.74;99805.81;4996242;28;20092;-74
2022/05/11 03:08:51;;;;;;;13.85;6.90;;;;;;;8.85;72.39;99802.16;5015362;28;20042;-75
2022/05/11 03:11:16;;;;;;;9.00;6.82;;;;;;;8.99;71.26;99790.94;5015160;28;20026;-75
2022/05/11 03:13:42;;;;;;;9.80;6.95;;;;;;;9.10;71.31;99786.75;5015137;28;20021;-75
2022/05/11 03:16:07;;;;;;;7.88;5.85;;;;;;;9.21;70.87;99780.94;4995022;28;20026;-75
2022/05/11 03:18:33;;;;;;;16.13;5.85;;;;;;;9.21;70.95;99780.94;5013898;28;20419;-75
2022/05/11 03:20:59;;;;;;;8.65;5.07;;;;;;;9.20;71.12;99790.44;5014947;28;20226;-75
2022/05/11 03:23:27;;;;;;;7.05;5.82;;;;;;;9.44;70.63;99797.66;5014957;28;20026;-73
2022/05/11 03:25:53;;;;;;;13.35;6.85;;;;;;;9.45;70.93;99800.09;4990483;28;20446;-73
2022/05/11 03:28:19;;;;;;;10.63;5.90;;;;;;;9.43;71.53;99805.19;5010274;28;20084;-75
2022/05/11 03:30:44;;;;;;;10.45;5.82;;;;;;;9.40;72.19;99801.06;5015031;28;20485;-75
2022/05/11 03:35:54;;;;;;;12.95;7.05;;;;;;;9.10;73.14;99817.47;5014875;28;20021;-75
2022/05/11 03:38:19;;;;;;;16.48;7.68;;;;;;;9.07;73.52;99806.94;4997734;28;20030;-74
2022/05/11 03:40:45;;;;;;;19.05;8.43;;;;;;;9.18;73.62;99812.28;4994113;28;20040;-74
2022/05/11 03:43:11;;;;;;;24.08;9.73;;;;;;;9.51;72.50;99806.38;4984553;28;20104;-75
2022/05/11 03:45:37;;;;;;;16.33;8.13;;;;;;;9.68;71.64;99809.28;5015099;28;20026;-74
2022/05/11 03:48:03;;;;;;;14.60;7.60;;;;;;;9.83;71.15;99810.00;5013589;28;20026;-75
2022/05/11 03:50:28;;;;;;;10.82;7.43;;;;;;;9.52;71.93;99819.19;5003040;28;20501;-75
2022/05/11 03:52:55;;;;;;;14.07;8.07;;;;;;;9.50;72.24;99813.97;4997107;28;20024;-75
2022/05/11 03:55:21;;;;;;;20.75;8.35;;;;;;;9.51;72.21;99809.19;4994707;28;20023;-75
2022/05/11 03:57:47;;;;;;;15.05;7.78;;;;;;;9.48;72.49;99819.03;4994630;28;20022;-71
2022/05/11 04:00:16;;;;;;;25.88;9.85;;;;;;;9.47;71.97;99822.97;4997282;28;20021;-74
2022/05/11 04:02:42;;;;;;;22.75;8.90;;;;;;;9.41;72.31;99813.91;4996565;28;20530;-74
2022/05/11 04:05:09;;;;;;;18.65;7.60;;;;;;;9.21;72.29;99820.81;5013951;28;20073;-73
2022/05/11 04:07:35;;;;;;;10.70;7.93;;;;;;;9.07;72.28;99826.47;5009273;28;20095;-74
2022/05/11 04:10:01;;;;;;;16.52;9.05;;;;;;;9.11;72.00;99833.06;5005997;28;20477;-79
2022/05/11 04:12:29;;;;;;;22.90;8.60;;;;;;;9.02;73.17;99840.53;4995575;28;20045;-77
2022/05/11 04:14:55;;;;;;;12.60;7.72;;;;;;;9.09;73.46;99837.28;5000907;28;20049;-75
2022/05/11 04:17:21;;;;;;;16.50;7.88;;;;;;;9.31;72.99;99830.06;4983994;28;20018;-78
2022/05/11 04:19:47;;;;;;;16.02;7.15;;;;;;;9.28;73.37;99820.38;5012793;28;20137;-78
2022/05/11 04:22:12;;;;;;;23.48;8.98;;;;;;;9.17;74.63;99825.38;5009647;28;20037;-77
2022/05/11 04:24:38;;;;;;;15.02;8.73;;;;;;;9.32;74.19;99810.22;5012023;28;20401;-83
2022/05/11 04:27:05;;;;;;;23.45;10.80;;;;;;;9.45;74.83;99830.00;5008677;28;20026;-82
2022/05/11 04:29:30;;;;;;;15.55;9.77;;;;;;;9.55;74.78;99833.34;4979195;28;20120;-81
2022/05/11 04:31:56;;;;;;;19.45;11.60;;;;;;;9.72;74.87;99833.78;5009517;28;20057;-81
2022/05/11 04:34:23;;;;;;;17.02;8.15;;;;;;;9.79;74.70;99825.78;5013486;28;20060;-81
2022/05/11 04:36:48;;;;;;;9.25;7.80;;;;;;;9.85;73.64;99832.84;5013423;28;20026;-80
2022/05/11 04:39:14;;;;;;;17.15;8.98;;;;;;;10.10;73.41;99822.94;4987053;28;20493;-75
2022/05/11 04:41:40;;;;;;;11.95;8.65;;;;;;;10.27;73.29;99829.72;4997858;28;20034;-74
2022/05/11 04:44:05;;;;;;;12.82;7.40;;;;;;;10.50;73.19;99830.50;5001806;28;20464;-79
2022/05/11 04:46:34;;;;;;;10.82;7.68;;;;;;;10.60;71.57;99834.13;4995120;28;20523;-81
2022/05/11 04:51:48;;;;;;;8.90;7.05;;;;;;;10.71;72.13;99840.25;4994140;28;20127;-80
2022/05/11 04:54:15;;;;;;;12.13;8.23;;;;;;;10.71;72.40;99835.44;5006884;28;20022;-80
2022/05/11 04:56:40;;;;;;;14.32;6.65;;;;;;;10.86;70.20;99836.97;5013117;28;20036;-80
2022/05/11 04:59:08;;;;;;;7.97;6.70;;;;;;;10.98;70.43;99832.69;5011908;28;20026;-80
2022/05/11 05:01:34;;;;;;;13.98;7.60;;;;;;;11.05;69.66;99841.41;5012117;28;20148;-78
2022/05/11 05:03:59;;;;;;;19.17;8.43;;;;;;;11.27;69.30;99836.78;5006239;28;20045;-79
2022/05/11 05:06:25;;;;;;;13.23;7.03;;;;;;;11.48;69.44;99845.34;4989887;28;20033;-80
2022/05/11 05:08:54;;;;;;;18.98;7.95;;;;;;;11.41;68.89;99839.41;5002444;28;20089;-79
2022/05/11 05:11:21;;;;;;;11.13;6.78;;;;;;;11.52;68.26;99835.09;4991850;28;20054;-80
2022/05/11 05:13:46;;;;;;;13.20;6.10;;;;;;;11.41;67.21;99848.66;5012153;28;20547;-80
2022/05/11 05:16:12;;;;;;;9.85;6.90;;;;;;;11.42;68.35;99844.69;4993592;28;20018;-79
2022/05/11 05:18:37;;;;;;;20.38;7.00;;;;;;;11.53;68.16;99839.56;4997057;28;20037;-79
2022/05/11 05:21:03;;;;;;;13.35;7.20;;;;;;;11.53;68.13;99850.75;4993036;28;20122;-80
2022/05/11 05:23:29;;;;;;;6.65;5.53;;;;;;;11.51;68.51;99847.47;4997160;28;20025;-79
2022/05/11 05:25:54;;;;;;;8.43;5.13;;;;;;;11.71;66.87;99845.13;4994834;28;20558;-80
2022/05/11 05:31:10;;;;;;;11.85;6.03;;;;;;;11.88;67.42;99853.47;5012470;28;20041;-82
2022/05/11 05:33:40;;;;;;;11.25;5.53;;;;;;;12.07;67.89;99852.31;4976693;28;20040;-79
2022/05/11 05:36:07;;;;;;;12.82;5.57;;;;;;;12.11;66.08;99858.03;5013300;28;20034;-80
2022/05/11 05:38:36;;;;;;;11.40;5.15;;;;;;;12.10;65.33;99845.19;5004962;28;20058;-77
2022/05/11 05:41:02;;;;;;;11.30;5.25;;;;;;;12.14;64.57;99852.59;5000760;28;20050;-75
2022/05/11 05:43:27;;;;;;;12.05;5.10;;;;;;;12.13;65.06;99864.97;4975552;28;20030;-78
2022/05/11 05:45:55;;;;;;;18.27;6.18;;;;;;;12.25;65.27;99860.63;4994557;28;20405;-77
2022/05/11 05:48:22;;;;;;;9.98;5.80;;;;;;;12.12;65.18;99856.88;4983673;28;20037;-76
2022/05/11 05:50:48;;;;;;;7.22;5.72;;;;;;;12.10;64.99;99865.63;5003780;28;20033;-80
2022/05/11 05:53:19;;;;;;;8.45;5.35;;;;;;;12.25;65.70;99872.69;4994926;28;20037;-76
2022/05/11 05:55:51;;;;;;;14.27;5.88;;;;;;;12.19;64.54;99874.00;5006302;28;20084;-75
2022/05/11 05:58:17;;;;;;;10.52;6.07;;;;;;;12.18;64.70;99873.19;4994769;28;20022;-74
2022/05/11 06:00:44;;;;;;;16.50;7.07;;;;;;;12.33;64.11;99879.41;5010632;28;20034;-76
2022/05/11 06:03:11;;;;;;;11.35;6.03;;;;;;;12.41;64.05;99870.09;5012341;28;20053;-75
2022/05/11 06:05:37;;;;;;;8.20;6.00;;;;;;;12.58;63.21;99865.59;5006527;28;20030;-74
2022/05/11 06:08:03;;;;;;;19.02;7.15;;;;;;;12.64;63.89;99876.28;5001106;28;20026;-73
2022/05/11 06:10:29;;;;;;;12.73;6.00;;;;;;;12.70;63.30;99868.47;4996532;28;20121;-80
2022/05/11 06:12:54;;;;;;;16.85;7.57;;;;;;;12.82;62.09;99878.16;5003427;28;20117;-76
2022/05/11 06:15:20;;;;;;;11.27;5.65;;;;;;;12.91;62.65;99887.31;4992100;28;20029;-75
2022/05/11 06:17:45;;;;;;;15.32;5.80;;;;;;;12.94;61.97;99869.81;4986705;28;20516;-74
2022/05/11 06:20:11;;;;;;;11.57;5.47;;;;;;;13.17;61.13;99878.69;4987175;28;20161;-74
2022/05/11 06:22:37;;;;;;;21.33;5.97;;;;;;;13.16;60.48;99865.03;4982091;28;20030;-75
2022/05/11 06:25:04;;;;;;;12.52;6.55;;;;;;;13.36;62.24;99876.56;4979752;28;20022;-71
2022/05/11 06:27:29;;;;;;;7.72;5.25;;;;;;;13.51;58.89;99873.16;5005220;28;20057;-71
2022/05/11 06:30:09;;;;;;;6.95;4.25;;;;;;;14.02;57.85;99878.56;4995558;28;20112;-77
2022/05/11 06:32:35;;;;;;;20.58;4.30;;;;;;;14.24;53.89;99850.34;4988272;28;20037;-77
2022/05/11 06:35:00;;;;;;;9.15;3.60;;;;;;;14.55;51.74;99871.47;4994683;28;20058;-75
2022/05/11 06:37:26;;;;;;;8.60;4.85;;;;;;;14.83;54.23;99868.78;4991975;28;20030;-76
2022/05/11 06:39:52;;;;;;;10.80;4.63;;;;;;;15.00;52.53;99864.88;4986846;28;20046;-74
2022/05/11 06:42:20;;;;;;;6.70;4.40;;;;;;;15.18;51.89;99870.22;4975584;28;20031;-82
2022/05/11 06:44:45;;;;;;;6.68;3.88;;;;;;;15.45;51.15;99867.78;4976299;28;20117;-74
2022/05/11 06:47:11;;;;;;;10.30;4.10;;;;;;;15.54;49.86;99868.44;4972607;28;20014;-74
2022/05/11 06:49:36;;;;;;;7.90;3.75;;;;;;;15.68;50.62;99862.41;4981230;28;20482;-76
2022/05/11 06:52:03;;;;;;;6.55;3.25;;;;;;;15.90;47.92;99857.38;4975928;28;20053;-73
2022/05/11 06:59:57;;;;;;;88.05;46.83;;;;;;;16.26;46.61;99863.13;4973597;28;20061;-74
2022/05/11 07:02:23;;;;;;;19.80;8.82;;;;;;;16.42;47.29;99863.13;4973514;28;20026;-76
2022/05/11 07:04:49;;;;;;;6.95;4.00;;;;;;;16.69;47.41;99866.16;4986256;28;20042;-77
2022/05/11 07:07:16;;;;;;;17.73;4.93;;;;;;;16.91;47.08;99861.03;4982449;28;20477;-77
2022/05/11 07:09:42;;;;;;;13.98;4.40;;;;;;;16.98;45.49;99856.34;4982599;28;20096;-71
2022/05/11 07:12:18;;;;;;;11.32;4.05;;;;;;;17.19;44.21;99860.03;4983264;28;20026;-75
2022/05/11 07:14:45;;;;;;;24.70;4.30;;;;;;;17.28;42.52;99857.03;4976977;28;20056;-75
2022/05/11 07:17:10;;;;;;;11.60;3.33;;;;;;;17.39;42.54;99863.72;4982112;28;20512;-75
2022/05/11 07:19:41;;;;;;;36.50;6.65;;;;;;;17.31;41.58;99854.25;4980636;28;20034;-75
2022/05/11 07:22:06;;;;;;;29.15;4.35;;;;;;;17.50;41.68;99858.28;4974161;28;20038;-74
2022/05/11 07:24:32;;;;;;;18.52;5.35;;;;;;;17.51;41.04;99848.59;4986337;28;20458;-76
2022/05/11 07:26:57;;;;;;;12.05;5.45;;;;;;;17.52;41.64;99845.41;4986266;28;20086;-76
2022/05/11 07:29:23;;;;;;;8.05;4.15;;;;;;;17.65;40.96;99848.88;4978867;28;20077;-77
2022/05/11 07:31:49;;;;;;;7.35;4.75;;;;;;;17.73;41.26;99849.81;4981559;28;20041;-75
2022/05/11 07:34:15;;;;;;;17.13;6.13;;;;;;;17.90;41.66;99850.56;4985953;28;20085;-75
2022/05/11 07:36:40;;;;;;;8.23;3.50;;;;;;;17.82;40.36;99846.78;4981381;28;20046;-76
2022/05/11 07:39:06;;;;;;;11.65;3.03;;;;;;;17.65;39.41;99845.25;4987013;28;20030;-74
2022/05/11 07:41:31;;;;;;;9.05;3.40;;;;;;;18.02;40.81;99846.72;4984835;28;20091;-76
2022/05/11 07:43:57;;;;;;;17.95;3.70;;;;;;;17.96;39.26;99844.19;5002179;28;20080;-75
2022/05/11 07:46:24;;;;;;;5.28;3.25;;;;;;;18.27;40.49;99846.34;4997480;28;20052;-74
2022/05/11 07:48:50;;;;;;;7.28;3.08;;;;;;;18.22;39.29;99836.16;5003153;28;20110;-74
2022/05/11 07:51:16;;;;;;;10.52;3.22;;;;;;;18.15;39.77;99844.56;5000572;28;20104;-73
2022/05/11 07:53:41;;;;;;;11.32;3.40;;;;;;;18.28;39.83;99842.31;4981641;28;20034;-76
2022/05/11 08:01:35;;;;;;;10.00;3.78;;;;;;;18.77;39.44;99818.00;5015569;28;20041;-74
2022/05/11 08:04:00;;;;;;;6.88;3.53;;;;;;;19.05;38.88;99816.78;5016608;28;20105;-75
2022/05/11 08:06:26;;;;;;;8.70;3.42;;;;;;;19.35;39.29;99815.97;5006054;28;20042;-75
2022/05/11 08:08:51;;;;;;;6.22;2.75;;;;;;;19.21;36.57;99820.25;5005994;28;20045;-75
2022/05/11 08:11:17;;;;;;;5.43;3.10;;;;;;;19.49;38.27;99809.66;4994122;28;20444;-77
2022/05/11 08:13:43;;;;;;;11.65;3.60;;;;;;;19.67;37.96;99809.84;4979452;28;20485;-75
2022/05/11 08:16:09;;;;;;;7.22;3.33;;;;;;;19.72;36.15;99812.31;4987498;28;20068;-76
2022/05/11 08:18:34;;;;;;;6.90;2.65;;;;;;;19.64;35.72;99799.25;5001143;28;20084;-77
2022/05/11 08:21:01;;;;;;;9.73;3.28;;;;;;;20.01;36.00;99808.97;4994258;28;20476;-73
2022/05/11 08:23:28;;;;;;;12.90;2.92;;;;;;;19.89;34.90;99801.53;4997097;28;20026;-75
2022/05/11 08:25:57;;;;;;;6.15;2.95;;;;;;;19.92;34.08;99787.41;5001511;28;20034;-74
2022/05/11 08:28:24;;;;;;;8.18;2.95;;;;;;;20.09;33.49;99805.00;5005493;28;20032;-73
2022/05/11 08:33:38;;;;;;;20.63;4.85;;;;;;;20.44;33.31;99792.28;5005435;28;20033;-73
2022/05/11 08:36:14;;;;;;;7.95;3.20;;;;;;;20.48;32.67;99792.31;4990049;28;20033;-73
2022/05/11 08:38:43;;;;;;;8.20;2.42;;;;;;;20.59;32.32;99789.56;5001160;28;20041;-73
2022/05/11 08:41:29;;;;;;;3.90;2.47;;;;;;;20.88;31.50;99789.72;4993071;28;20049;-73
2022/05/11 08:44:14;;;;;;;4.50;2.53;;;;;;;21.06;32.04;99789.00;4981717;28;20053;-71
2022/05/11 08:47:04;;;;;;;4.75;2.78;;;;;;;21.21;30.91;99789.88;4984305;28;20033;-72
2022/05/11 08:49:38;;;;;;;6.03;2.28;;;;;;;20.68;30.40;99787.16;4985935;28;20061;-74
2022/05/11 08:52:10;;;;;;;8.02;2.53;;;;;;;20.83;30.63;99787.28;4992892;28;20052;-73
2022/05/11 08:54:49;;;;;;;5.93;3.80;;;;;;;21.20;30.99;99777.69;4983313;28;20027;-74
2022/05/11 08:57:18;;;;;;;4.07;2.80;;;;;;;21.38;30.04;99788.31;4981628;28;20026;-71
2022/05/11 08:59:44;;;;;;;17.55;2.58;;;;;;;21.33;30.33;99780.97;4999332;28;20060;-72
2022/05/11 09:02:26;;;;;;;5.53;2.92;;;;;;;21.48;31.13;99786.72;4984899;28;20362;-72
2022/05/11 09:04:56;;;;;;;5.32;3.03;;;;;;;21.41;30.99;99776.94;4990234;28;20114;-74
2022/05/11 09:07:22;;;;;;;8.68;2.65;;;;;;;21.38;30.37;99772.06;4986113;28;20069;-71
2022/05/11 09:09:50;;;;;;;4.63;2.63;;;;;;;21.80;29.90;99774.59;4973905;28;20030;-73
2022/05/11 09:12:16;;;;;;;6.85;2.78;;;;;;;22.12;30.76;99776.66;4977237;28;20073;-72
2022/05/11 09:14:51;;;;;;;2.80;2.17;;;;;;;22.38;28.19;99775.41;4979654;28;20056;-71
2022/05/11 09:17:37;;;;;;;7.45;2.67;;;;;;;22.58;28.91;99773.00;4979653;28;20023;-72
2022/05/11 09:20:13;;;;;;;6.47;2.30;;;;;;;22.58;28.08;99758.75;4981536;28;20499;-74
2022/05/11 09:23:02;;;;;;;4.00;3.00;;;;;;;22.33;27.83;99770.13;4981382;28;20055;-77
2022/05/11 09:25:36;;;;;;;8.35;2.50;;;;;;;22.58;27.00;99767.28;4985595;28;20035;-73
2022/05/11 09:28:22;;;;;;;6.68;2.67;;;;;;;22.52;27.71;99768.13;4988917;28;20108;-74
2022/05/11 09:31:27;;;;;;;8.80;2.60;;;;;;;22.57;27.21;99759.13;4974633;28;20023;-74
2022/05/11 09:34:05;;;;;;;5.72;3.00;;;;;;;22.96;26.45;99763.09;4974000;28;20037;-73
2022/05/11 09:36:42;;;;;;;3.58;2.40;;;;;;;23.23;25.44;99765.44;4975895;28;20057;-71
2022/05/11 09:39:15;;;;;;;3.75;2.00;;;;;;;23.55;26.20;99764.47;4991817;28;20056;-72
2022/05/11 09:41:43;;;;;;;6.32;2.22;;;;;;;23.69;25.47;99747.25;5002841;28;20033;-73
2022/05/11 09:44:46;;;;;;;7.63;2.90;;;;;;;23.68;26.00;99759.06;4994257;28;20030;-71
2022/05/11 09:47:31;;;;;;;4.32;2.60;;;;;;;23.46;26.10;99750.63;5011206;28;20037;-74
2022/05/11 09:50:25;;;;;;;5.90;2.60;;;;;;;23.59;24.95;99748.13;5011832;28;20025;-73
2022/05/11 09:52:51;;;;;;;4.55;2.17;;;;;;;24.05;25.18;99751.09;5000310;28;20079;-73
2022/05/11 09:55:31;;;;;;;4.68;2.30;;;;;;;24.40;24.98;99743.41;5003020;28;20516;-75
2022/05/11 09:58:06;;;;;;;5.43;2.00;;;;;;;24.47;24.60;99748.25;4993489;28;20026;-72
2022/05/11 10:00:41;;;;;;;5.85;1.88;;;;;;;24.50;23.70;99742.50;4992218;28;20381;-72
2022/05/11 10:03:16;;;;;;;5.82;2.28;;;;;;;24.52;24.09;99745.72;4996607;28;20038;-71
2022/05/11 10:05:51;;;;;;;13.52;2.28;;;;;;;24.53;24.47;99747.34;5000395;28;20069;-73
2022/05/11 10:08:31;;;;;;;3.72;2.45;;;;;;;24.60;23.89;99745.63;4972011;28;20027;-72
2022/05/11 10:11:04;;;;;;;6.53;2.20;;;;;;;24.70;21.83;99741.84;4988739;28;20109;-73
2022/05/11 10:13:37;;;;;;;14.70;2.50;;;;;;;24.79;20.98;99733.59;5000793;28;20092;-72
2022/05/11 10:22:06;;;;;;;4.30;2.13;;;;;;;24.92;21.63;99735.91;4996637;28;20045;-73
2022/05/11 10:24:53;;;;;;;2.83;1.83;;;;;;;24.99;21.96;99727.25;4999399;28;20037;-71
2022/05/11 10:27:47;;;;;;;5.40;2.53;;;;;;;25.29;22.11;99721.94;4984138;28;20021;-72
2022/05/11 10:30:23;;;;;;;3.70;1.90;;;;;;;25.26;21.73;99717.06;4993156;28;20026;-73
2022/05/11 10:33:26;;;;;;;8.25;2.85;;;;;;;25.35;22.09;99717.34;4978604;28;20021;-73
2022/05/11 10:36:11;;;;;;;4.03;2.45;;;;;;;25.29;22.76;99704.78;4996939;28;20390;-73
2022/05/11 10:38:55;;;;;;;6.05;2.45;;;;;;;25.61;22.52;99718.63;4971022;28;20101;-73
2022/05/11 10:41:30;;;;;;;6.53;2.10;;;;;;;25.78;22.47;99711.00;4968249;28;20520;-72
2022/05/11 10:44:32;;;;;;;3.78;2.08;;;;;;;25.69;22.74;99710.72;4982392;28;20077;-73
2022/05/11 10:47:35;;;;;;;9.00;2.85;;;;;;;25.51;22.81;99708.94;4976807;28;20081;-73
2022/05/11 10:50:43;;;;;;;6.57;2.40;;;;;;;24.97;23.80;99701.09;4966175;28;20031;-72
2022/05/11 10:53:53;;;;;;;4.07;2.90;;;;;;;25.11;24.01;99699.31;4971371;28;20046;-73
2022/05/11 10:56:39;;;;;;;10.43;3.03;;;;;;;24.93;24.48;99692.59;4988935;28;20489;-73
2022/05/11 10:59:26;;;;;;;6.82;2.72;;;;;;;25.56;25.07;99695.41;4984101;28;20026;-78
2022/05/11 11:02:00;;;;;;;5.97;2.30;;;;;;;25.68;24.03;99691.13;4965866;28;20049;-72
2022/05/11 11:05:03;;;;;;;66.80;42.70;;;;;;;26.06;24.74;99682.28;4975605;28;20069;-72
2022/05/11 11:08:05;;;;;;;16.42;4.55;;;;;;;26.02;23.09;99688.09;4977247;28;20093;-73
2022/05/11 11:10:48;;;;;;;8.40;5.90;;;;;;;25.88;24.87;99689.13;4985465;28;20409;-73
2022/05/11 11:13:34;;;;;;;5.40;3.63;;;;;;;25.93;23.39;99682.91;4972086;28;20041;-75
2022/05/11 11:16:02;;;;;;;6.13;2.83;;;;;;;25.77;23.12;99677.06;4976386;28;20501;-74
2022/05/11 11:18:41;;;;;;;4.03;2.60;;;;;;;25.45;23.57;99678.34;4988476;28;20559;-74
2022/05/11 11:21:10;;;;;;;5.70;3.13;;;;;;;25.68;24.04;99673.94;4970885;28;20046;-74
2022/05/11 11:23:42;;;;;;;5.27;2.80;;;;;;;25.68;23.61;99674.75;4982832;28;20106;-75
2022/05/11 11:26:12;;;;;;;8.20;2.95;;;;;;;25.87;23.75;99675.25;4980972;28;20473;-75
2022/05/11 11:28:40;;;;;;;15.07;4.07;;;;;;;26.25;23.84;99674.19;4980911;28;20029;-73
2022/05/11 11:31:09;;;;;;;7.78;4.57;;;;;;;26.38;23.90;99669.44;4962587;28;20121;-77
2022/05/11 11:34:03;;;;;;;6.03;3.60;;;;;;;26.53;24.11;99669.13;4989546;28;20050;-73
2022/05/11 11:36:35;;;;;;;7.78;3.20;;;;;;;26.35;23.39;99679.72;4982025;28;20050;-74
2022/05/11 11:39:07;;;;;;;11.23;3.50;;;;;;;26.41;22.70;99680.00;4982449;28;20045;-73
2022/05/11 11:41:55;;;;;;;6.68;2.92;;;;;;;26.50;23.15;99676.59;4994616;28;20033;-75
2022/05/11 11:44:20;;;;;;;2.72;2.22;;;;;;;25.61;23.16;99681.41;5004385;28;20029;-74
2022/05/11 11:46:47;;;;;;;6.00;2.70;;;;;;;25.94;24.10;99680.84;5002271;28;20413;-77
2022/05/11 11:49:18;;;;;;;6.78;2.70;;;;;;;25.92;24.21;99678.41;5004793;28;20025;-77
2022/05/11 11:52:00;;;;;;;8.32;3.17;;;;;;;26.15;23.96;99673.91;5013877;28;20030;-75
2022/05/11 11:54:38;;;;;;;8.18;3.20;;;;;;;26.39;25.04;99671.03;4994259;28;20517;-76
2022/05/11 11:57:12;;;;;;;8.20;3.00;;;;;;;26.87;24.61;99665.19;4994346;28;20118;-74
2022/05/11 11:59:40;;;;;;;7.65;2.90;;;;;;;25.99;23.47;99660.28;4984856;28;20121;-72
2022/05/11 12:02:11;;;;;;;6.57;2.80;;;;;;;26.08;23.59;99663.41;5012364;28;20516;-74
2022/05/11 12:04:41;;;;;;;4.70;3.20;;;;;;;25.67;24.00;99667.41;5005611;28;20066;-71
2022/05/11 12:15:44;;;;;;;5.95;3.22;;;;;;;27.06;24.38;99637.72;4993846;28;20413;-75
2022/05/11 12:18:25;;;;;;;10.65;2.88;;;;;;;27.39;23.59;99634.06;4993763;28;20027;-71
2022/05/11 12:20:51;;;;;;;3.55;2.83;;;;;;;27.45;24.03;99640.91;4997246;28;20034;-75
2022/05/11 12:23:24;;;;;;;9.02;2.83;;;;;;;27.45;23.67;99635.16;4991395;28;20034;-75
2022/05/11 12:25:56;;;;;;;3.15;2.53;;;;;;;27.72;23.26;99634.94;4993654;28;20030;-73
2022/05/11 12:28:39;;;;;;;10.10;3.15;;;;;;;27.78;22.54;99629.44;4976291;28;20030;-73